createdAt,value
2023-05-12T00:00:37.442Z,10.92
2023-05-12T00:01:32.392Z,10.93
2023-05-12T00:02:27.596Z,10.92
2023-05-12T00:03:22.648Z,10.91
2023-05-12T00:04:17.605Z,10.91
2023-05-12T00:05:12.578Z,10.92
2023-05-12T00:06:07.626Z,10.90
2023-05-12T00:07:02.846Z,10.91
2023-05-12T00:07:58.105Z,10.90
2023-05-12T00:08:53.774Z,10.91
2023-05-12T00:09:49.032Z,10.93
2023-05-12T00:10:44.843Z,10.97
2023-05-12T00:11:40.075Z,11.00
2023-05-12T00:12:35.508Z,11.03
2023-05-12T00:13:31.213Z,11.02
2023-05-12T00:14:26.407Z,11.04
2023-05-12T00:15:21.683Z,11.01
2023-05-12T00:16:17.911Z,10.97
2023-05-12T00:17:13.179Z,10.96
2023-05-12T00:18:08.969Z,10.94
2023-05-12T00:19:04.281Z,10.94
2023-05-12T00:19:59.368Z,10.93
2023-05-12T00:20:55.185Z,10.90
2023-05-12T00:21:50.480Z,10.88
2023-05-12T00:22:46.441Z,10.86
2023-05-12T00:23:41.509Z,10.84
2023-05-12T00:24:37.004Z,10.83
2023-05-12T00:25:32.758Z,10.81
2023-05-12T00:26:28.027Z,10.83
2023-05-12T00:27:23.261Z,10.82
2023-05-12T00:28:19.624Z,10.80
2023-05-12T00:29:14.875Z,10.79
2023-05-12T00:30:10.696Z,10.79
2023-05-12T00:31:05.950Z,10.77
2023-05-12T00:32:01.342Z,10.74
2023-05-12T00:32:57.109Z,10.73
2023-05-12T00:33:52.269Z,10.73
2023-05-12T00:34:48.183Z,10.74
2023-05-12T00:35:43.303Z,10.74
2023-05-12T00:36:38.725Z,10.75
2023-05-12T00:37:34.596Z,10.76
2023-05-12T00:38:29.817Z,10.78
2023-05-12T00:39:25.167Z,10.77
2023-05-12T00:40:21.473Z,10.78
2023-05-12T00:41:16.559Z,10.81
2023-05-12T00:42:12.388Z,10.86
2023-05-12T00:43:07.573Z,10.92
2023-05-12T00:44:02.971Z,10.95
2023-05-12T00:44:58.646Z,10.97
2023-05-12T00:45:53.966Z,10.99
2023-05-12T00:46:49.755Z,10.99
2023-05-12T00:47:45.051Z,10.99
2023-05-12T00:48:40.286Z,10.98
2023-05-12T00:49:35.986Z,10.97
2023-05-12T00:50:31.199Z,10.98
2023-05-12T00:51:26.498Z,10.98
2023-05-12T00:52:22.664Z,10.97
2023-05-12T00:53:17.953Z,10.97
2023-05-12T00:54:13.894Z,10.97
2023-05-12T00:55:08.985Z,10.98
2023-05-12T00:56:04.223Z,10.97
2023-05-12T00:57:00.109Z,10.97
2023-05-12T00:57:55.272Z,10.97
2023-05-12T00:58:51.056Z,10.98
2023-05-12T00:59:46.397Z,10.98
2023-05-12T01:00:41.563Z,10.96
2023-05-12T01:01:37.414Z,10.94
2023-05-12T01:02:32.789Z,10.94
2023-05-12T01:03:27.955Z,10.92
2023-05-12T01:04:23.105Z,10.92
2023-05-12T01:05:19.211Z,10.93
2023-05-12T01:06:14.466Z,10.95
2023-05-12T01:07:09.997Z,10.96
2023-05-12T01:08:05.563Z,10.96
2023-05-12T01:09:00.793Z,10.98
2023-05-12T01:09:56.642Z,11.00
2023-05-12T01:10:51.826Z,11.02
2023-05-12T01:11:47.248Z,11.01
2023-05-12T01:12:42.926Z,10.99
2023-05-12T01:13:38.187Z,10.98
2023-05-12T01:14:33.448Z,10.96
2023-05-12T01:15:29.657Z,10.96
2023-05-12T01:16:24.929Z,10.97
2023-05-12T01:17:20.795Z,10.97
2023-05-12T01:18:15.954Z,10.96
2023-05-12T01:19:11.125Z,10.92
2023-05-12T01:20:06.890Z,10.89
2023-05-12T01:21:02.152Z,10.89
2023-05-12T01:21:57.586Z,10.89
2023-05-12T01:22:52.694Z,10.90
2023-05-12T01:23:48.000Z,10.90
2023-05-12T01:24:43.246Z,10.88
2023-05-12T01:25:38.581Z,10.86
2023-05-12T01:26:34.724Z,10.89
2023-05-12T01:27:29.993Z,10.90
2023-05-12T01:28:25.384Z,10.92
2023-05-12T01:29:21.052Z,10.92
2023-05-12T01:30:16.355Z,10.93
2023-05-12T01:31:11.649Z,10.95
2023-05-12T01:32:06.927Z,10.99
2023-05-12T01:33:01.903Z,10.99
2023-05-12T01:33:56.907Z,11.02
2023-05-12T01:34:51.906Z,11.01
2023-05-12T01:35:46.908Z,10.96
2023-05-12T01:36:42.065Z,10.95
2023-05-12T01:37:37.012Z,10.93
2023-05-12T01:38:32.015Z,10.91
2023-05-12T01:39:27.273Z,10.89
2023-05-12T01:40:22.472Z,10.88
2023-05-12T01:41:18.925Z,10.89
2023-05-12T01:42:14.018Z,10.88
2023-05-12T01:43:09.165Z,10.89
2023-05-12T01:44:04.138Z,10.93
2023-05-12T01:44:59.200Z,10.94
2023-05-12T01:45:54.164Z,10.93
2023-05-12T01:46:49.321Z,10.89
2023-05-12T01:47:44.253Z,10.85
2023-05-12T01:48:39.384Z,10.84
2023-05-12T01:49:34.372Z,10.80
2023-05-12T01:50:29.389Z,10.79
2023-05-12T01:51:24.368Z,10.79
2023-05-12T01:52:20.102Z,10.79
2023-05-12T01:53:15.249Z,10.79
2023-05-12T01:54:10.506Z,10.76
2023-05-12T01:55:06.293Z,10.72
2023-05-12T01:56:01.562Z,10.69
2023-05-12T01:56:57.648Z,10.67
2023-05-12T01:57:52.638Z,10.64
2023-05-12T01:58:47.932Z,10.61
2023-05-12T01:59:43.671Z,10.59
2023-05-12T02:00:38.938Z,10.60
2023-05-12T02:01:34.390Z,10.60
2023-05-12T02:02:30.441Z,10.58
2023-05-12T02:03:25.813Z,10.58
2023-05-12T02:04:21.490Z,10.58
2023-05-12T02:05:16.754Z,10.59
2023-05-12T02:06:12.135Z,10.59
2023-05-12T02:07:07.819Z,10.56
2023-05-12T02:08:03.072Z,10.54
2023-05-12T02:08:58.940Z,10.54
2023-05-12T02:09:54.190Z,10.54
2023-05-12T02:10:49.651Z,10.55
2023-05-12T02:11:45.331Z,10.55
2023-05-12T02:12:40.712Z,10.59
2023-05-12T02:13:35.789Z,10.61
2023-05-12T02:14:32.265Z,10.62
2023-05-12T02:15:27.567Z,10.63
2023-05-12T02:16:23.473Z,10.60
2023-05-12T02:17:18.511Z,10.60
2023-05-12T02:18:13.810Z,10.61
2023-05-12T02:19:09.693Z,10.62
2023-05-12T02:20:04.868Z,10.62
2023-05-12T02:21:00.830Z,10.63
2023-05-12T02:21:55.990Z,10.61
2023-05-12T02:22:51.302Z,10.58
2023-05-12T02:23:47.154Z,10.56
2023-05-12T02:24:42.457Z,10.58
2023-05-12T02:25:37.750Z,10.58
2023-05-12T02:26:33.889Z,10.56
2023-05-12T02:27:29.248Z,10.53
2023-05-12T02:28:24.962Z,10.52
2023-05-12T02:29:20.265Z,10.52
2023-05-12T02:30:15.552Z,10.51
2023-05-12T02:31:11.605Z,10.51
2023-05-12T02:32:06.725Z,10.52
2023-05-12T02:33:02.627Z,10.51
2023-05-12T02:33:57.691Z,10.48
2023-05-12T02:34:53.092Z,10.46
2023-05-12T02:35:48.332Z,10.43
2023-05-12T02:36:43.709Z,10.42
2023-05-12T02:37:39.355Z,10.44
2023-05-12T02:38:34.604Z,10.46
2023-05-12T02:39:29.892Z,10.46
2023-05-12T02:40:25.793Z,10.44
2023-05-12T02:41:21.141Z,10.44
2023-05-12T02:42:17.028Z,10.42
2023-05-12T02:43:12.129Z,10.40
2023-05-12T02:44:07.534Z,10.37
2023-05-12T02:45:03.381Z,10.37
2023-05-12T02:45:58.734Z,10.40
2023-05-12T02:46:53.965Z,10.39
2023-05-12T02:47:50.336Z,10.37
2023-05-12T02:48:45.602Z,10.36
2023-05-12T02:49:41.472Z,10.37
2023-05-12T02:50:36.695Z,10.39
2023-05-12T02:51:32.138Z,10.36
2023-05-12T02:52:27.253Z,10.37
2023-05-12T02:53:22.543Z,10.38
2023-05-12T02:54:17.596Z,10.37
2023-05-12T02:55:12.645Z,10.35
2023-05-12T02:56:07.784Z,10.35
2023-05-12T02:57:02.850Z,10.34
2023-05-12T02:57:57.845Z,10.33
2023-05-12T02:58:52.849Z,10.31
2023-05-12T02:59:47.919Z,10.33
2023-05-12T03:00:43.009Z,10.34
2023-05-12T03:01:39.711Z,10.35
2023-05-12T03:02:34.862Z,10.36
2023-05-12T03:03:29.922Z,10.34
2023-05-12T03:04:24.844Z,10.33
2023-05-12T03:05:19.821Z,10.33
2023-05-12T03:06:14.865Z,10.31
2023-05-12T03:07:09.836Z,10.29
2023-05-12T03:08:04.981Z,10.28
2023-05-12T03:09:00.090Z,10.29
2023-05-12T03:09:55.222Z,10.30
2023-05-12T03:10:50.407Z,10.31
2023-05-12T03:11:45.466Z,10.32
2023-05-12T03:14:05.846Z,9.98
2023-05-12T03:15:00.903Z,10.19
2023-05-12T03:15:56.363Z,10.27
2023-05-12T03:16:51.458Z,10.30
2023-05-12T03:17:46.736Z,10.32
2023-05-12T03:18:42.034Z,10.34
2023-05-12T03:19:37.160Z,10.35
2023-05-12T03:20:32.433Z,10.36
2023-05-12T03:21:27.645Z,10.36
2023-05-12T03:22:22.994Z,10.39
2023-05-12T03:23:18.332Z,10.42
2023-05-12T03:24:14.193Z,10.42
2023-05-12T03:25:08.820Z,10.40
2023-05-12T03:26:04.180Z,10.39
2023-05-12T03:26:59.338Z,10.40
2023-05-12T03:27:54.605Z,10.40
2023-05-12T03:28:49.913Z,10.40
2023-05-12T03:29:45.190Z,10.39
2023-05-12T03:30:40.439Z,10.37
2023-05-12T03:31:35.742Z,10.37
2023-05-12T03:32:31.019Z,10.36
2023-05-12T03:33:26.327Z,10.35
2023-05-12T03:34:21.608Z,10.33
2023-05-12T03:35:16.873Z,10.32
2023-05-12T03:36:12.195Z,10.33
2023-05-12T03:37:07.321Z,10.35
2023-05-12T03:38:02.461Z,10.35
2023-05-12T03:38:57.821Z,10.36
2023-05-12T03:39:53.205Z,10.34
2023-05-12T03:40:48.235Z,10.34
2023-05-12T03:41:43.441Z,10.34
2023-05-12T03:42:38.767Z,10.35
2023-05-12T03:43:34.035Z,10.37
2023-05-12T03:44:29.484Z,10.39
2023-05-12T03:45:24.558Z,10.38
2023-05-12T03:46:19.783Z,10.39
2023-05-12T03:47:15.165Z,10.40
2023-05-12T03:48:10.579Z,10.41
2023-05-12T03:49:05.658Z,10.39
2023-05-12T03:50:01.072Z,10.39
2023-05-12T03:50:56.218Z,10.40
2023-05-12T03:51:51.554Z,10.40
2023-05-12T03:52:46.798Z,10.38
2023-05-12T03:53:42.173Z,10.36
2023-05-12T03:54:38.079Z,10.35
2023-05-12T03:55:33.952Z,10.34
2023-05-12T03:56:28.499Z,10.34
2023-05-12T03:57:23.286Z,10.37
2023-05-12T03:58:18.647Z,10.38
2023-05-12T03:59:14.014Z,10.40
2023-05-12T04:00:09.321Z,10.41
2023-05-12T04:01:04.617Z,10.40
2023-05-12T04:01:59.942Z,10.42
2023-05-12T04:02:55.258Z,10.43
2023-05-12T04:03:50.667Z,10.45
2023-05-12T04:04:46.501Z,10.47
2023-05-12T04:05:41.244Z,10.48
2023-05-12T04:06:36.635Z,10.50
2023-05-12T04:07:31.960Z,10.51
2023-05-12T04:08:27.237Z,10.52
2023-05-12T04:09:22.535Z,10.54
2023-05-12T04:10:18.055Z,10.55
2023-05-12T04:11:13.233Z,10.58
2023-05-12T04:12:08.817Z,10.60
2023-05-12T04:13:04.390Z,10.61
2023-05-12T04:13:59.633Z,10.62
2023-05-12T04:14:55.249Z,10.63
2023-05-12T04:15:50.351Z,10.64
2023-05-12T04:16:45.745Z,10.66
2023-05-12T04:17:41.107Z,10.66
2023-05-12T04:18:36.469Z,10.66
2023-05-12T04:19:31.859Z,10.65
2023-05-12T04:20:27.353Z,10.63
2023-05-12T04:21:22.786Z,10.61
2023-05-12T04:22:18.000Z,10.59
2023-05-12T04:23:13.381Z,10.57
2023-05-12T04:24:08.714Z,10.56
2023-05-12T04:25:04.390Z,10.54
2023-05-12T04:25:59.598Z,10.55
2023-05-12T04:26:55.049Z,10.56
2023-05-12T04:27:50.387Z,10.57
2023-05-12T04:28:46.436Z,10.59
2023-05-12T04:29:41.458Z,10.61
2023-05-12T04:30:36.562Z,10.63
2023-05-12T04:31:31.956Z,10.64
2023-05-12T04:32:27.317Z,10.64
2023-05-12T04:33:22.626Z,10.66
2023-05-12T04:34:19.199Z,10.68
2023-05-12T04:35:13.561Z,10.70
2023-05-12T04:36:08.870Z,10.71
2023-05-12T04:37:04.167Z,10.74
2023-05-12T04:37:59.551Z,10.76
2023-05-12T04:38:54.882Z,10.79
2023-05-12T04:39:50.357Z,10.82
2023-05-12T04:40:45.613Z,10.83
2023-05-12T04:41:41.104Z,10.83
2023-05-12T04:42:37.058Z,10.82
2023-05-12T04:44:27.337Z,10.83
2023-05-12T04:45:23.076Z,10.86
2023-05-12T04:46:18.158Z,10.87
2023-05-12T04:47:13.547Z,10.89
2023-05-12T04:48:08.938Z,10.88
2023-05-12T04:49:04.528Z,10.88
2023-05-12T04:50:00.227Z,10.88
2023-05-12T04:50:55.512Z,10.89
2023-05-12T04:51:50.861Z,10.90
2023-05-12T04:52:46.439Z,10.91
2023-05-12T04:53:41.848Z,10.93
2023-05-12T04:54:37.498Z,10.95
2023-05-12T04:55:33.096Z,10.96
2023-05-12T04:56:28.186Z,10.96
2023-05-12T04:57:23.531Z,10.97
2023-05-12T04:58:18.901Z,10.99
2023-05-12T04:59:14.436Z,10.98
2023-05-12T05:00:09.714Z,11.00
2023-05-12T05:01:05.258Z,11.00
2023-05-12T05:02:00.693Z,10.99
2023-05-12T05:02:56.378Z,10.98
2023-05-12T05:03:51.642Z,10.97
2023-05-12T05:04:46.901Z,10.97
2023-05-12T05:05:42.391Z,10.97
2023-05-12T05:06:37.785Z,10.99
2023-05-12T05:07:33.548Z,11.02
2023-05-12T05:08:29.744Z,11.05
2023-05-12T05:09:24.399Z,11.06
2023-05-12T05:10:19.774Z,11.08
2023-05-12T05:11:15.301Z,11.10
2023-05-12T05:12:10.866Z,11.12
2023-05-12T05:13:06.332Z,11.15
2023-05-12T05:14:01.813Z,11.16
2023-05-12T05:14:57.104Z,11.15
2023-05-12T05:15:52.575Z,11.14
2023-05-12T05:16:48.086Z,11.13
2023-05-12T05:17:43.455Z,11.12
2023-05-12T05:18:38.917Z,11.11
2023-05-12T05:19:46.192Z,11.10
2023-05-12T05:20:32.320Z,11.09
2023-05-12T05:21:25.445Z,11.11
2023-05-12T05:22:20.659Z,11.13
2023-05-12T05:23:16.048Z,11.15
2023-05-12T05:24:11.668Z,11.16
2023-05-12T05:25:07.051Z,11.18
2023-05-12T05:26:02.470Z,11.20
2023-05-12T05:26:57.891Z,11.21
2023-05-12T05:27:53.454Z,11.23
2023-05-12T05:28:49.042Z,11.26
2023-05-12T05:29:44.495Z,11.28
2023-05-12T05:30:39.900Z,11.29
2023-05-12T05:31:35.646Z,11.30
2023-05-12T05:32:31.045Z,11.30
2023-05-12T05:33:26.693Z,11.29
2023-05-12T05:34:22.256Z,11.28
2023-05-12T05:35:17.702Z,11.28
2023-05-12T05:36:13.065Z,11.28
2023-05-12T05:37:08.647Z,11.29
2023-05-12T05:38:04.792Z,11.29
2023-05-12T05:39:00.573Z,11.32
2023-05-12T05:39:55.130Z,11.31
2023-05-12T05:40:54.314Z,11.27
2023-05-12T05:41:46.028Z,11.23
2023-05-12T05:42:41.489Z,11.23
2023-05-12T05:43:36.904Z,11.22
2023-05-12T05:44:32.382Z,11.23
2023-05-12T05:45:28.242Z,11.24
2023-05-12T05:46:23.383Z,11.22
2023-05-12T05:47:18.837Z,11.18
2023-05-12T05:48:14.243Z,11.18
2023-05-12T05:49:10.067Z,11.18
2023-05-12T05:50:05.318Z,11.15
2023-05-12T05:51:00.775Z,11.10
2023-05-12T05:51:56.168Z,11.04
2023-05-12T05:52:51.628Z,11.03
2023-05-12T05:53:47.042Z,11.02
2023-05-12T05:54:42.637Z,10.99
2023-05-12T05:55:38.194Z,10.98
2023-05-12T05:56:34.288Z,10.91
2023-05-12T05:57:29.016Z,10.87
2023-05-12T05:58:24.617Z,10.85
2023-05-12T05:59:20.129Z,10.86
2023-05-12T06:00:15.602Z,10.91
2023-05-12T06:01:11.178Z,10.96
2023-05-12T06:02:06.612Z,11.00
2023-05-12T06:03:02.032Z,11.03
2023-05-12T06:03:58.583Z,11.06
2023-05-12T06:04:52.972Z,11.05
2023-05-12T06:05:48.404Z,11.04
2023-05-12T06:06:43.784Z,11.03
2023-05-12T06:07:39.265Z,11.03
2023-05-12T06:08:34.819Z,11.01
2023-05-12T06:09:30.209Z,11.04
2023-05-12T06:10:25.649Z,11.06
2023-05-12T06:11:21.128Z,11.10
2023-05-12T06:12:16.566Z,11.12
2023-05-12T06:13:11.978Z,11.13
2023-05-12T06:14:07.996Z,11.13
2023-05-12T06:15:03.118Z,11.15
2023-05-12T06:15:58.489Z,11.16
2023-05-12T06:16:53.966Z,11.17
2023-05-12T06:17:49.535Z,11.19
2023-05-12T06:18:45.089Z,11.21
2023-05-12T06:19:40.397Z,11.17
2023-05-12T06:20:35.928Z,11.08
2023-05-12T06:21:31.297Z,11.06
2023-05-12T06:22:26.784Z,11.06
2023-05-12T06:23:22.392Z,11.07
2023-05-12T06:24:17.835Z,11.08
2023-05-12T06:25:13.244Z,11.10
2023-05-12T06:26:08.774Z,11.12
2023-05-12T06:27:04.314Z,11.12
2023-05-12T06:27:59.680Z,11.09
2023-05-12T06:28:55.080Z,11.07
2023-05-12T06:29:50.487Z,11.07
2023-05-12T06:30:45.896Z,11.08
2023-05-12T06:31:41.352Z,11.10
2023-05-12T06:32:37.084Z,11.12
2023-05-12T06:33:32.399Z,11.15
2023-05-12T06:34:27.818Z,11.19
2023-05-12T06:35:23.366Z,11.22
2023-05-12T06:36:18.660Z,11.21
2023-05-12T06:37:14.092Z,11.17
2023-05-12T06:38:09.544Z,11.14
2023-05-12T06:39:05.039Z,11.13
2023-05-12T06:40:00.835Z,11.17
2023-05-12T06:40:55.988Z,11.18
2023-05-12T06:41:51.394Z,11.15
2023-05-12T06:42:46.856Z,11.18
2023-05-12T06:43:42.274Z,11.17
2023-05-12T06:44:38.530Z,11.16
2023-05-12T06:45:33.280Z,11.20
2023-05-12T06:46:28.762Z,11.24
2023-05-12T06:47:24.318Z,11.27
2023-05-12T06:48:19.717Z,11.31
2023-05-12T06:49:15.192Z,11.35
2023-05-12T06:50:10.830Z,11.39
2023-05-12T06:51:06.246Z,11.42
2023-05-12T06:52:01.917Z,11.43
2023-05-12T06:52:58.078Z,11.44
2023-05-12T06:53:52.623Z,11.48
2023-05-12T06:54:48.209Z,11.47
2023-05-12T06:55:43.697Z,11.52
2023-05-12T06:56:39.142Z,11.59
2023-05-12T06:57:34.694Z,11.57
2023-05-12T06:58:30.112Z,11.56
2023-05-12T06:59:25.712Z,11.57
2023-05-12T07:00:21.168Z,11.62
2023-05-12T07:01:16.914Z,11.67
2023-05-12T07:02:12.256Z,11.67
2023-05-12T07:03:07.766Z,11.65
2023-05-12T07:04:03.225Z,11.68
2023-05-12T07:04:58.952Z,11.74
2023-05-12T07:05:54.278Z,11.79
2023-05-12T07:06:49.770Z,11.84
2023-05-12T07:07:45.227Z,11.86
2023-05-12T07:08:40.684Z,11.84
2023-05-12T07:09:36.102Z,11.84
2023-05-12T07:10:31.770Z,11.83
2023-05-12T07:11:26.861Z,11.82
2023-05-12T07:12:22.407Z,11.84
2023-05-12T07:13:18.034Z,11.85
2023-05-12T07:14:13.475Z,11.87
2023-05-12T07:15:08.866Z,11.86
2023-05-12T07:16:04.310Z,11.83
2023-05-12T07:16:59.713Z,11.81
2023-05-12T07:17:55.280Z,11.80
2023-05-12T07:18:50.657Z,11.82
2023-05-12T07:19:46.037Z,11.83
2023-05-12T07:20:41.439Z,11.82
2023-05-12T07:21:36.888Z,11.78
2023-05-12T07:22:32.639Z,11.76
2023-05-12T07:23:28.548Z,11.75
2023-05-12T07:24:23.390Z,11.75
2023-05-12T07:25:19.012Z,11.76
2023-05-12T07:26:14.296Z,11.74
2023-05-12T07:27:09.810Z,11.65
2023-05-12T07:28:05.383Z,11.60
2023-05-12T07:29:01.039Z,11.62
2023-05-12T07:29:56.217Z,11.65
2023-05-12T07:30:51.703Z,11.68
2023-05-12T07:31:47.182Z,11.73
2023-05-12T07:32:42.626Z,11.81
2023-05-12T07:33:38.036Z,11.90
2023-05-12T07:34:33.509Z,11.96
2023-05-12T07:35:28.930Z,11.97
2023-05-12T07:36:24.421Z,11.98
2023-05-12T07:37:19.818Z,11.99
2023-05-12T07:38:15.421Z,11.97
2023-05-12T07:39:10.809Z,11.90
2023-05-12T07:40:06.236Z,11.87
2023-05-12T07:41:01.630Z,11.87
2023-05-12T07:41:57.042Z,11.89
2023-05-12T07:42:52.630Z,11.90
2023-05-12T07:43:47.935Z,11.89
2023-05-12T07:44:43.432Z,11.88
2023-05-12T07:45:38.764Z,11.81
2023-05-12T07:46:34.154Z,11.76
2023-05-12T07:47:29.613Z,11.77
2023-05-12T07:48:25.093Z,11.81
2023-05-12T07:49:21.471Z,11.81
2023-05-12T07:50:16.067Z,11.83
2023-05-12T07:51:11.510Z,11.86
2023-05-12T07:52:06.879Z,11.90
2023-05-12T07:53:02.502Z,11.94
2023-05-12T07:53:57.868Z,11.89
2023-05-12T07:54:53.461Z,11.90
2023-05-12T07:55:48.907Z,11.94
2023-05-12T07:56:44.379Z,11.94
2023-05-12T07:57:39.853Z,11.99
2023-05-12T07:58:35.331Z,12.06
2023-05-12T07:59:30.780Z,12.07
2023-05-12T08:00:26.373Z,12.08
2023-05-12T08:01:21.788Z,12.12
2023-05-12T08:02:17.406Z,12.18
2023-05-12T08:03:12.727Z,12.23
2023-05-12T08:04:08.244Z,12.21
2023-05-12T08:05:03.460Z,12.22
2023-05-12T08:05:58.975Z,12.21
2023-05-12T08:06:54.713Z,12.19
2023-05-12T08:07:50.187Z,12.16
2023-05-12T08:08:45.526Z,12.14
2023-05-12T08:09:41.156Z,12.15
2023-05-12T08:10:36.586Z,12.15
2023-05-12T08:11:32.067Z,12.19
2023-05-12T08:12:27.557Z,12.26
2023-05-12T08:13:23.016Z,12.29
2023-05-12T08:14:18.568Z,12.32
2023-05-12T08:15:14.080Z,12.33
2023-05-12T08:16:09.344Z,12.32
2023-05-12T08:17:05.163Z,12.33
2023-05-12T08:18:00.250Z,12.33
2023-05-12T08:18:55.833Z,12.29
2023-05-12T08:19:51.949Z,12.27
2023-05-12T08:20:46.562Z,12.25
2023-05-12T08:21:41.958Z,12.26
2023-05-12T08:22:37.528Z,12.29
2023-05-12T08:23:32.800Z,12.31
2023-05-12T08:24:28.341Z,12.33
2023-05-12T08:25:24.819Z,12.33
2023-05-12T08:26:19.284Z,12.32
2023-05-12T08:27:14.767Z,12.33
2023-05-12T08:28:10.329Z,12.33
2023-05-12T08:29:05.737Z,12.37
2023-05-12T08:30:01.163Z,12.39
2023-05-12T08:30:56.571Z,12.41
2023-05-12T08:31:51.972Z,12.45
2023-05-12T08:32:47.454Z,12.43
2023-05-12T08:33:43.681Z,12.40
2023-05-12T08:34:38.383Z,12.34
2023-05-12T08:35:33.664Z,12.33
2023-05-12T08:36:29.060Z,12.31
2023-05-12T08:37:24.581Z,12.30
2023-05-12T08:38:20.025Z,12.30
2023-05-12T08:39:15.407Z,12.31
2023-05-12T08:40:10.848Z,12.31
2023-05-12T08:41:06.248Z,12.29
2023-05-12T08:42:01.678Z,12.18
2023-05-12T08:42:58.353Z,12.09
2023-05-12T08:43:52.761Z,12.00
2023-05-12T08:44:48.213Z,11.98
2023-05-12T08:45:43.754Z,12.00
2023-05-12T08:46:39.210Z,12.03
2023-05-12T08:47:34.651Z,12.08
2023-05-12T08:48:30.216Z,12.13
2023-05-12T08:49:25.619Z,12.14
2023-05-12T08:50:21.179Z,12.13
2023-05-12T08:51:16.512Z,12.15
2023-05-12T08:52:12.034Z,12.09
2023-05-12T08:53:07.609Z,12.06
2023-05-12T08:54:03.090Z,12.10
2023-05-12T08:55:00.012Z,12.14
2023-05-12T08:57:09.073Z,12.14
2023-05-12T08:57:45.487Z,12.15
2023-05-12T08:58:42.403Z,12.17
2023-05-12T08:59:36.454Z,12.25
2023-05-12T09:00:31.950Z,12.35
2023-05-12T09:01:27.495Z,12.47
2023-05-12T09:02:23.067Z,12.58
2023-05-12T09:03:18.458Z,12.64
2023-05-12T09:04:13.926Z,12.67
2023-05-12T09:05:09.345Z,12.70
2023-05-12T09:06:04.795Z,12.65
2023-05-12T09:07:00.158Z,12.67
2023-05-12T09:07:56.121Z,12.74
2023-05-12T09:08:51.164Z,12.86
2023-05-12T09:09:46.598Z,12.90
2023-05-12T09:10:41.884Z,12.74
2023-05-12T09:11:37.442Z,12.63
2023-05-12T09:12:32.971Z,12.58
2023-05-12T09:14:51.988Z,12.35
2023-05-12T09:15:47.185Z,12.60
2023-05-12T09:16:42.762Z,12.96
2023-05-12T09:17:38.079Z,13.25
2023-05-12T09:18:33.569Z,13.34
2023-05-12T09:19:29.038Z,13.37
2023-05-12T09:21:20.930Z,13.65
2023-05-12T09:22:15.482Z,13.99
2023-05-12T09:23:11.044Z,14.12
2023-05-12T09:24:06.538Z,14.15
2023-05-12T09:25:01.691Z,14.08
2023-05-12T09:25:57.289Z,13.97
2023-05-12T09:26:52.850Z,13.78
2023-05-12T09:27:48.313Z,13.68
2023-05-12T09:28:43.759Z,13.71
2023-05-12T09:29:48.114Z,13.70
2023-05-12T09:30:35.686Z,13.58
2023-05-12T09:31:30.208Z,13.37
2023-05-12T09:32:25.587Z,13.15
2023-05-12T09:33:21.193Z,13.08
2023-05-12T09:34:16.705Z,13.03
2023-05-12T09:35:12.045Z,12.93
2023-05-12T09:36:07.423Z,12.94
2023-05-12T09:37:03.023Z,12.99
2023-05-12T09:37:58.589Z,13.07
2023-05-12T09:38:54.172Z,13.10
2023-05-12T09:39:49.456Z,13.10
2023-05-12T09:40:44.949Z,13.12
2023-05-12T09:41:40.365Z,13.20
2023-05-12T09:42:36.107Z,13.30
2023-05-12T09:43:31.550Z,13.39
2023-05-12T09:44:27.034Z,13.45
2023-05-12T09:45:22.781Z,13.53
2023-05-12T09:46:18.027Z,13.46
2023-05-12T09:47:13.415Z,13.38
2023-05-12T09:48:08.964Z,13.37
2023-05-12T09:49:04.595Z,13.40
2023-05-12T09:50:00.054Z,13.40
2023-05-12T09:50:55.495Z,13.44
2023-05-12T09:51:50.927Z,13.41
2023-05-12T09:52:46.516Z,13.40
2023-05-12T09:53:41.908Z,13.42
2023-05-12T09:54:37.458Z,13.42
2023-05-12T09:55:33.036Z,13.52
2023-05-12T09:56:28.357Z,13.65
2023-05-12T09:57:23.762Z,13.72
2023-05-12T09:58:19.210Z,13.77
2023-05-12T09:59:14.637Z,13.89
2023-05-12T10:00:20.239Z,14.05
2023-05-12T10:01:21.912Z,14.08
2023-05-12T10:02:01.684Z,14.11
2023-05-12T10:02:56.299Z,14.06
2023-05-12T10:03:51.526Z,14.04
2023-05-12T10:04:47.086Z,14.00
2023-05-12T10:05:42.544Z,14.00
2023-05-12T10:06:38.009Z,14.04
2023-05-12T10:07:33.433Z,14.16
2023-05-12T10:08:28.916Z,14.25
2023-05-12T10:09:24.336Z,14.41
2023-05-12T10:10:19.824Z,14.53
2023-05-12T10:11:15.410Z,14.56
2023-05-12T10:12:10.656Z,14.57
2023-05-12T10:13:06.277Z,14.52
2023-05-12T10:14:01.536Z,14.48
2023-05-12T10:14:56.953Z,14.42
2023-05-12T10:15:52.533Z,14.50
2023-05-12T10:16:47.867Z,14.36
2023-05-12T10:17:43.298Z,14.25
2023-05-12T10:18:38.809Z,14.34
2023-05-12T10:19:35.814Z,14.54
2023-05-12T10:20:31.162Z,14.65
2023-05-12T10:21:26.654Z,14.69
2023-05-12T10:22:22.134Z,14.82
2023-05-12T10:23:17.620Z,14.97
2023-05-12T10:24:13.295Z,15.15
2023-05-12T10:25:08.414Z,15.12
2023-05-12T10:26:03.874Z,15.06
2023-05-12T10:26:59.615Z,14.88
2023-05-12T10:27:54.798Z,14.76
2023-05-12T10:28:50.211Z,14.56
2023-05-12T10:29:45.570Z,14.42
2023-05-12T10:30:40.950Z,14.46
2023-05-12T10:31:36.479Z,14.66
2023-05-12T10:32:31.889Z,14.90
2023-05-12T10:33:26.930Z,15.03
2023-05-12T10:34:22.050Z,14.85
2023-05-12T10:35:17.147Z,14.77
2023-05-12T10:36:12.211Z,14.68
2023-05-12T10:37:07.285Z,14.77
2023-05-12T10:38:02.376Z,14.76
2023-05-12T10:38:57.476Z,14.68
2023-05-12T10:39:52.691Z,14.75
2023-05-12T10:40:47.773Z,14.93
2023-05-12T10:41:42.879Z,15.11
2023-05-12T10:42:38.849Z,15.19
2023-05-12T10:43:33.936Z,15.36
2023-05-12T10:44:28.956Z,15.60
2023-05-12T10:45:24.052Z,15.74
2023-05-12T10:46:20.216Z,15.93
2023-05-12T10:47:15.692Z,16.00
2023-05-12T10:48:11.159Z,15.86
2023-05-12T10:49:06.893Z,15.85
2023-05-12T10:50:02.362Z,15.95
2023-05-12T10:50:57.717Z,16.05
2023-05-12T10:51:53.478Z,15.93
2023-05-12T10:52:48.862Z,15.79
2023-05-12T10:53:50.208Z,15.73
2023-05-12T10:54:40.819Z,15.72
2023-05-12T10:55:35.439Z,15.77
2023-05-12T10:56:31.211Z,15.80
2023-05-12T10:57:26.671Z,15.80
2023-05-12T10:58:22.047Z,15.86
2023-05-12T10:59:17.311Z,15.87
2023-05-12T11:00:12.386Z,15.91
2023-05-12T11:01:07.373Z,15.94
2023-05-12T11:02:03.679Z,15.98
2023-05-12T11:03:01.234Z,16.04
2023-05-12T11:03:54.060Z,15.98
2023-05-12T11:04:48.176Z,16.01
2023-05-12T11:05:44.313Z,15.92
2023-05-12T11:06:40.418Z,15.84
2023-05-12T11:07:35.238Z,15.79
2023-05-12T11:08:30.514Z,15.84
2023-05-12T11:09:25.092Z,15.90
2023-05-12T11:10:20.498Z,15.93
2023-05-12T11:11:16.021Z,15.64
2023-05-12T11:12:11.336Z,15.32
2023-05-12T11:13:06.862Z,15.06
2023-05-12T11:14:02.178Z,14.91
2023-05-12T11:14:57.673Z,14.99
2023-05-12T11:15:52.981Z,15.09
2023-05-12T11:16:48.518Z,15.19
2023-05-12T11:17:43.898Z,15.31
2023-05-12T11:18:39.410Z,15.38
2023-05-12T11:19:34.890Z,15.36
2023-05-12T11:20:31.054Z,15.38
2023-05-12T11:21:25.433Z,15.42
2023-05-12T11:22:20.518Z,15.41
2023-05-12T11:23:15.612Z,15.41
2023-05-12T11:24:12.208Z,15.44
2023-05-12T11:25:06.404Z,15.43
2023-05-12T11:26:01.497Z,15.51
2023-05-12T11:26:56.579Z,15.60
2023-05-12T11:27:51.659Z,15.46
2023-05-12T11:28:48.728Z,15.33
2023-05-12T11:29:43.784Z,15.22
2023-05-12T11:30:38.775Z,15.21
2023-05-12T11:31:33.909Z,15.33
2023-05-12T11:32:28.877Z,15.35
2023-05-12T11:33:23.913Z,15.22
2023-05-12T11:34:18.897Z,15.17
2023-05-12T11:35:14.013Z,15.12
2023-05-12T11:36:08.987Z,15.07
2023-05-12T11:37:04.122Z,15.03
2023-05-12T11:37:59.162Z,14.91
2023-05-12T11:38:54.323Z,14.88
2023-05-12T11:39:49.510Z,14.87
2023-05-12T11:40:44.906Z,14.80
2023-05-12T11:41:40.263Z,14.72
2023-05-12T11:42:35.832Z,14.62
2023-05-12T11:43:30.998Z,14.58
2023-05-12T11:44:26.524Z,14.56
2023-05-12T11:45:22.482Z,14.45
2023-05-12T11:46:17.502Z,14.31
2023-05-12T11:47:12.837Z,14.19
2023-05-12T11:48:08.285Z,14.12
2023-05-12T11:49:03.626Z,14.05
2023-05-12T11:49:59.329Z,14.11
2023-05-12T11:50:54.500Z,14.15
2023-05-12T11:51:53.827Z,14.16
2023-05-12T11:52:49.167Z,14.06
2023-05-12T11:53:44.560Z,14.08
2023-05-12T11:54:40.296Z,14.11
2023-05-12T11:55:35.656Z,14.11
2023-05-12T11:56:31.129Z,14.15
2023-05-12T11:57:26.090Z,14.14
2023-05-12T11:58:21.111Z,14.14
2023-05-12T11:59:16.065Z,14.10